Latest Weather Observations for Sellicks Hill

IDS60901

Issued at 6:55 pm CST Wednesday 23 April 2014 (issued every 10 minutes, with the page automatically refreshed every 10 minutes)

About weather observations | Map of Adelaide area stations | Latest observations for Adelaide area | Other Formats
Station Details ID: 023886 Name: MOUNT TERRIBLE RADAR Lat: -35.33 Lon: 138.50 Height: 385.7 m
Data from the previous 72 hours. | See also: Recent months for locations in South Australia
Date/Time
CST
Tmp

°C
App
Tmp
°C
Dew
Point
°C
Rel
Hum
%
Delta-T

°C
Wind Press
QNH
hPa
Press
MSL
hPa
Rain
since
9 am
mm
Dir
 
Spd
km/h
Gust
km/h
Spd
kts
Gust
kts
23/06:30pm - - - - - NNW 9 15 5 8 - - -
23/06:00pm - - - - - NNW 7 13 4 7 - - -
23/05:30pm - - - - - NNW 7 11 4 6 - - -
23/05:00pm - - - - - NNW 9 13 5 7 - - -
23/04:30pm - - - - - NNW 9 13 5 7 - - -
23/04:00pm - - - - - NNW 7 15 4 8 - - -
23/03:30pm - - - - - NNW 9 17 5 9 - - -
23/03:00pm - - - - - NNW 7 15 4 8 - - -
23/02:30pm - - - - - NNW 7 11 4 6 - - -
23/02:00pm - - - - - NW 6 13 3 7 - - -
23/01:30pm - - - - - NW 7 15 4 8 - - -
23/01:00pm - - - - - NW 9 22 5 12 - - -
23/12:30pm - - - - - NW 9 15 5 8 - - -
23/12:00pm - - - - - NW 9 19 5 10 - - -
23/11:30am - - - - - NNW 11 20 6 11 - - -
23/11:00am - - - - - NNW 9 15 5 8 - - -
23/10:30am - - - - - NNW 9 19 5 10 - - -
23/10:00am - - - - - NNW 9 15 5 8 - - -
23/09:30am - - - - - N 7 11 4 6 - - -
23/09:00am - - - - - NNW 7 11 4 6 - - -
23/08:30am - - - - - N 6 9 3 5 - - -
23/08:00am - - - - - N 6 7 3 4 - - -
23/07:30am - - - - - N 4 6 2 3 - - -
23/07:00am - - - - - N 4 7 2 4 - - -
23/06:30am - - - - - NW 6 7 3 4 - - -
23/06:00am - - - - - NNW 6 7 3 4 - - -
23/05:30am - - - - - CALM 0 6 0 3 - - -
23/05:00am - - - - - CALM 0 0 0 0 - - -
23/04:30am - - - - - CALM 0 0 0 0 - - -
23/04:00am - - - - - E 6 6 3 3 - - -
23/03:30am - - - - - ESE 7 9 4 5 - - -
23/03:00am - - - - - ESE 7 9 4 5 - - -
23/02:30am - - - - - SE 9 9 5 5 - - -
23/02:00am - - - - - SE 9 11 5 6 - - -
23/01:30am - - - - - SSE 9 11 5 6 - - -
23/01:00am - - - - - SE 11 13 6 7 - - -
23/12:30am - - - - - SE 13 15 7 8 - - -
23/12:00am - - - - - SE 15 15 8 8 - - -
 
Date/Time
CST
Tmp

°C
App
Tmp
°C
Dew
Point
°C
Rel
Hum
%
Delta-T

°C
Wind Press
QNH
hPa
Press
MSL
hPa
Rain
since
9 am
mm
Dir
 
Spd
km/h
Gust
km/h
Spd
kts
Gust
kts
22/11:30pm - - - - - SE 15 15 8 8 - - -
22/11:00pm - - - - - SE 15 19 8 10 - - -
22/10:30pm - - - - - SE 17 19 9 10 - - -
22/10:00pm - - - - - SE 17 19 9 10 - - -
22/09:30pm - - - - - SE 15 19 8 10 - - -
22/09:00pm - - - - - SE 17 19 9 10 - - -
22/08:30pm - - - - - SSE 20 22 11 12 - - -
22/08:00pm - - - - - SSE 19 20 10 11 - - -
22/07:30pm - - - - - SSE 19 19 10 10 - - -
22/07:00pm - - - - - SSE 20 22 11 12 - - -
22/06:30pm - - - - - SSE 24 26 13 14 - - -
22/06:00pm - - - - - SSE 24 26 13 14 - - -
22/05:30pm - - - - - S 26 32 14 17 - - -
22/05:00pm - - - - - S 22 30 12 16 - - -
22/04:30pm - - - - - S 17 24 9 13 - - -
22/04:00pm - - - - - S 19 28 10 15 - - -
22/03:30pm - - - - - S 13 24 7 13 - - -
22/03:00pm - - - - - SSW 11 22 6 12 - - -
22/02:30pm - - - - - S 13 26 7 14 - - -
22/02:00pm - - - - - S 13 20 7 11 - - -
22/01:30pm - - - - - S 11 19 6 10 - - -
22/01:00pm - - - - - S 11 20 6 11 - - -
22/12:30pm - - - - - S 15 26 8 14 - - -
22/12:00pm - - - - - SSW 7 17 4 9 - - -
22/11:30am - - - - - S 15 20 8 11 - - -
22/11:00am - - - - - S 15 24 8 13 - - -
22/10:30am - - - - - S 11 24 6 13 - - -
22/10:00am - - - - - S 11 22 6 12 - - -
22/09:30am - - - - - S 19 28 10 15 - - -
22/09:00am - - - - - S 24 35 13 19 - - -
22/08:30am - - - - - S 22 28 12 15 - - -
22/08:00am - - - - - S 24 28 13 15 - - -
22/07:30am - - - - - S 22 26 12 14 - - -
22/07:00am - - - - - S 26 35 14 19 - - -
22/06:30am - - - - - S 26 32 14 17 - - -
22/06:00am - - - - - S 24 28 13 15 - - -
22/05:30am - - - - - SSE 17 24 9 13 - - -
22/05:00am - - - - - S 17 19 9 10 - - -
22/04:30am - - - - - S 17 19 9 10 - - -
22/04:00am - - - - - SSE 11 15 6 8 - - -
22/03:30am - - - - - S 17 19 9 10 - - -
22/03:00am - - - - - SSE 13 15 7 8 - - -
22/02:30am - - - - - S 11 13 6 7 - - -
22/02:00am - - - - - SSE 17 19 9 10 - - -
22/01:30am - - - - - SSE 17 19 9 10 - - -
22/01:00am - - - - - S 13 20 7 11 - - -
22/12:30am - - - - - WNW 4 7 2 4 - - -
22/12:00am - - - - - NNW 11 19 6 10 - - -
 
Date/Time
CST
Tmp

°C
App
Tmp
°C
Dew
Point
°C
Rel
Hum
%
Delta-T

°C
Wind Press
QNH
hPa
Press
MSL
hPa
Rain
since
9 am
mm
Dir
 
Spd
km/h
Gust
km/h
Spd
kts
Gust
kts
21/11:30pm - - - - - NNW 6 13 3 7 - - -
21/11:00pm - - - - - N 2 7 1 4 - - -
21/10:30pm - - - - - SSW 7 11 4 6 - - -
21/10:00pm - - - - - SW 9 19 5 10 - - -
21/09:30pm - - - - - N 4 9 2 5 - - -
21/09:00pm - - - - - SW 4 7 2 4 - - -
21/08:30pm - - - - - WNW 4 7 2 4 - - -
21/08:00pm - - - - - WSW 6 11 3 6 - - -
21/07:30pm - - - - - W 7 13 4 7 - - -
21/07:00pm - - - - - N 13 22 7 12 - - -
21/06:30pm - - - - - NNW 11 19 6 10 - - -
21/06:00pm - - - - - NNW 9 15 5 8 - - -
21/05:30pm - - - - - NNW 9 13 5 7 - - -
21/05:00pm - - - - - NW 17 30 9 16 - - -
21/04:30pm - - - - - NNW 32 50 17 27 - - -
21/04:00pm - - - - - NNW 26 46 14 25 - - -
21/03:30pm - - - - - NNW 28 46 15 25 - - -
21/03:00pm - - - - - NNW 28 41 15 22 - - -
21/02:30pm - - - - - NNW 28 46 15 25 - - -
21/02:00pm - - - - - NNW 26 43 14 23 - - -
21/01:30pm - - - - - NNW 26 44 14 24 - - -
21/01:00pm - - - - - NNW 28 52 15 28 - - -
21/12:33pm - - - - - N 28 48 15 26 - - -
21/12:30pm - - - - - NNW 30 43 16 23 - - -
21/12:00pm - - - - - NNW 28 54 15 29 - - -
21/11:30am - - - - - N 28 57 15 31 - - -
21/11:19am - - - - - N 28 46 15 25 - - -
21/11:00am - - - - - N 32 50 17 27 - - -
21/10:30am - - - - - N 30 50 16 27 - - -
21/10:00am - - - - - NNW 28 52 15 28 - - -
21/09:30am - - - - - N 30 48 16 26 - - -
21/09:08am - - - - - N 28 61 15 33 - - -
21/09:00am - - - - - N 26 50 14 27 - - -
21/08:48am - - - - - N 28 50 15 27 - - -
21/08:30am - - - - - N 22 39 12 21 - - -
21/08:00am - - - - - N 17 32 9 17 - - -
21/07:30am - - - - - N 19 35 10 19 - - -
21/07:00am - - - - - N 17 32 9 17 - - -
21/06:30am - - - - - N 15 28 8 15 - - -
21/06:00am - - - - - N 13 28 7 15 - - -
21/05:30am - - - - - N 13 28 7 15 - - -
21/05:00am - - - - - N 17 33 9 18 - - -
21/04:30am - - - - - N 13 33 7 18 - - -
21/04:00am - - - - - N 13 32 7 17 - - -
21/03:30am - - - - - N 11 33 6 18 - - -
21/03:00am - - - - - N 11 26 6 14 - - -
21/02:30am - - - - - N 11 28 6 15 - - -
21/02:00am - - - - - N 9 19 5 10 - - -
21/01:30am - - - - - NNE 9 19 5 10 - - -
21/01:00am - - - - - NNE 9 19 5 10 - - -
21/12:30am - - - - - NE 7 22 4 12 - - -
21/12:00am - - - - - NE 7 13 4 7 - - -
 
Date/Time
CST
Tmp

°C
App
Tmp
°C
Dew
Point
°C
Rel
Hum
%
Delta-T

°C
Wind Press
QNH
hPa
Press
MSL
hPa
Rain
since
9 am
mm
Dir
 
Spd
km/h
Gust
km/h
Spd
kts
Gust
kts
20/11:30pm - - - - - ENE 9 17 5 9 - - -
20/11:00pm - - - - - E 9 15 5 8 - - -
20/10:30pm - - - - - NE 4 9 2 5 - - -
20/10:00pm - - - - - E 6 7 3 4 - - -
20/09:30pm - - - - - ENE 4 6 2 3 - - -
20/09:00pm - - - - - CALM 0 0 0 0 - - -
20/08:30pm - - - - - CALM 0 0 0 0 - - -
20/08:00pm - - - - - S 2 4 1 2 - - -
20/07:30pm - - - - - SSW 4 6 2 3 - - -
20/07:00pm - - - - - WSW 4 7 2 4 - - -

Latest Capital City Observations: Canberra | Sydney | Melbourne | Brisbane | Adelaide | Perth | Hobart | Darwin

Other Formats:

Comma delimited format used in spreadsheet applications
http://www.bom.gov.au/fwo/IDS60901/IDS60901.95679.axf

JavaScript Object Notation format (JSON) in row-major order
http://www.bom.gov.au/fwo/IDS60901/IDS60901.95679.json